sensor_id;sensor_type;location;lat;lon;timestamp;P1;durP1;ratioP1;P2;durP2;ratioP2
54921;SDS011;40824;45.116;21.296;2023-06-22T00:02:21;11.75;;;9.65;;
54921;SDS011;40824;45.116;21.296;2023-06-22T00:04:47;12.30;;;9.18;;
54921;SDS011;40824;45.116;21.296;2023-06-22T00:07:13;13.95;;;9.95;;
54921;SDS011;40824;45.116;21.296;2023-06-22T00:09:39;12.95;;;10.07;;
54921;SDS011;40824;45.116;21.296;2023-06-22T00:12:05;11.50;;;9.55;;
54921;SDS011;40824;45.116;21.296;2023-06-22T00:14:31;10.75;;;9.40;;
54921;SDS011;40824;45.116;21.296;2023-06-22T00:16:58;11.48;;;9.18;;
54921;SDS011;40824;45.116;21.296;2023-06-22T00:19:24;13.00;;;10.05;;
54921;SDS011;40824;45.116;21.296;2023-06-22T00:21:50;13.10;;;10.15;;
54921;SDS011;40824;45.116;21.296;2023-06-22T00:24:20;11.80;;;10.52;;
54921;SDS011;40824;45.116;21.296;2023-06-22T00:26:48;12.68;;;9.73;;
54921;SDS011;40824;45.116;21.296;2023-06-22T00:29:14;11.38;;;9.88;;
54921;SDS011;40824;45.116;21.296;2023-06-22T00:31:41;14.32;;;10.25;;
54921;SDS011;40824;45.116;21.296;2023-06-22T00:34:07;10.85;;;9.23;;
54921;SDS011;40824;45.116;21.296;2023-06-22T00:36:34;14.98;;;9.75;;
54921;SDS011;40824;45.116;21.296;2023-06-22T00:39:00;10.60;;;8.85;;
54921;SDS011;40824;45.116;21.296;2023-06-22T00:41:26;15.02;;;10.50;;
54921;SDS011;40824;45.116;21.296;2023-06-22T00:43:58;10.25;;;9.15;;
54921;SDS011;40824;45.116;21.296;2023-06-22T00:46:26;13.07;;;9.52;;
54921;SDS011;40824;45.116;21.296;2023-06-22T00:48:53;11.40;;;9.48;;
54921;SDS011;40824;45.116;21.296;2023-06-22T00:51:22;11.85;;;8.85;;
54921;SDS011;40824;45.116;21.296;2023-06-22T00:53:49;11.18;;;9.02;;
54921;SDS011;40824;45.116;21.296;2023-06-22T00:56:16;12.15;;;9.35;;
54921;SDS011;40824;45.116;21.296;2023-06-22T00:58:46;11.73;;;9.52;;
54921;SDS011;40824;45.116;21.296;2023-06-22T01:01:13;12.35;;;9.52;;
54921;SDS011;40824;45.116;21.296;2023-06-22T01:03:42;12.55;;;9.88;;
54921;SDS011;40824;45.116;21.296;2023-06-22T01:06:10;13.63;;;9.93;;
54921;SDS011;40824;45.116;21.296;2023-06-22T01:08:46;13.18;;;9.68;;
54921;SDS011;40824;45.116;21.296;2023-06-22T01:11:19;12.13;;;9.93;;
54921;SDS011;40824;45.116;21.296;2023-06-22T01:14:06;14.75;;;10.45;;
54921;SDS011;40824;45.116;21.296;2023-06-22T01:16:37;13.02;;;10.40;;
54921;SDS011;40824;45.116;21.296;2023-06-22T01:21:42;14.50;;;10.23;;
54921;SDS011;40824;45.116;21.296;2023-06-22T01:26:40;10.80;;;9.70;;
54921;SDS011;40824;45.116;21.296;2023-06-22T01:29:08;10.68;;;9.57;;
54921;SDS011;40824;45.116;21.296;2023-06-22T01:31:38;11.00;;;9.90;;
54921;SDS011;40824;45.116;21.296;2023-06-22T01:34:05;12.93;;;9.65;;
54921;SDS011;40824;45.116;21.296;2023-06-22T01:36:33;11.10;;;10.00;;
54921;SDS011;40824;45.116;21.296;2023-06-22T01:39:04;10.80;;;9.35;;
54921;SDS011;40824;45.116;21.296;2023-06-22T01:41:33;11.13;;;10.02;;
54921;SDS011;40824;45.116;21.296;2023-06-22T01:44:00;12.18;;;10.82;;
54921;SDS011;40824;45.116;21.296;2023-06-22T01:46:27;12.25;;;10.15;;
54921;SDS011;40824;45.116;21.296;2023-06-22T01:48:53;11.73;;;10.00;;
54921;SDS011;40824;45.116;21.296;2023-06-22T01:51:19;12.85;;;11.13;;
54921;SDS011;40824;45.116;21.296;2023-06-22T01:53:46;13.50;;;10.43;;
54921;SDS011;40824;45.116;21.296;2023-06-22T01:56:13;11.13;;;10.02;;
54921;SDS011;40824;45.116;21.296;2023-06-22T01:58:41;12.02;;;10.75;;
54921;SDS011;40824;45.116;21.296;2023-06-22T02:01:09;11.68;;;10.48;;
54921;SDS011;40824;45.116;21.296;2023-06-22T02:03:37;12.13;;;10.68;;
54921;SDS011;40824;45.116;21.296;2023-06-22T02:06:05;11.55;;;10.15;;
54921;SDS011;40824;45.116;21.296;2023-06-22T02:08:35;10.82;;;9.73;;
54921;SDS011;40824;45.116;21.296;2023-06-22T02:11:03;12.52;;;10.30;;
54921;SDS011;40824;45.116;21.296;2023-06-22T02:13:29;12.65;;;10.32;;
54921;SDS011;40824;45.116;21.296;2023-06-22T02:15:56;11.93;;;10.60;;
54921;SDS011;40824;45.116;21.296;2023-06-22T02:18:22;12.13;;;10.13;;
54921;SDS011;40824;45.116;21.296;2023-06-22T02:20:48;12.68;;;10.38;;
54921;SDS011;40824;45.116;21.296;2023-06-22T02:23:14;13.80;;;10.60;;
54921;SDS011;40824;45.116;21.296;2023-06-22T02:25:41;13.45;;;10.85;;
54921;SDS011;40824;45.116;21.296;2023-06-22T02:28:09;12.38;;;10.60;;
54921;SDS011;40824;45.116;21.296;2023-06-22T02:30:35;13.05;;;10.57;;
54921;SDS011;40824;45.116;21.296;2023-06-22T02:33:01;15.95;;;10.70;;
54921;SDS011;40824;45.116;21.296;2023-06-22T02:35:28;12.77;;;10.52;;
54921;SDS011;40824;45.116;21.296;2023-06-22T02:38:00;13.80;;;10.13;;
54921;SDS011;40824;45.116;21.296;2023-06-22T02:40:27;11.73;;;10.23;;
54921;SDS011;40824;45.116;21.296;2023-06-22T02:42:54;12.25;;;10.40;;
54921;SDS011;40824;45.116;21.296;2023-06-22T02:45:20;11.35;;;10.20;;
54921;SDS011;40824;45.116;21.296;2023-06-22T02:47:46;15.65;;;10.65;;
54921;SDS011;40824;45.116;21.296;2023-06-22T02:50:13;17.20;;;11.25;;
54921;SDS011;40824;45.116;21.296;2023-06-22T02:52:39;12.20;;;10.85;;
54921;SDS011;40824;45.116;21.296;2023-06-22T02:55:08;15.45;;;10.65;;
54921;SDS011;40824;45.116;21.296;2023-06-22T02:57:37;12.05;;;10.00;;
54921;SDS011;40824;45.116;21.296;2023-06-22T03:00:08;14.80;;;10.45;;
54921;SDS011;40824;45.116;21.296;2023-06-22T03:02:45;14.35;;;11.20;;
54921;SDS011;40824;45.116;21.296;2023-06-22T03:05:12;12.70;;;11.38;;
54921;SDS011;40824;45.116;21.296;2023-06-22T03:07:41;13.23;;;11.80;;
54921;SDS011;40824;45.116;21.296;2023-06-22T03:10:10;14.45;;;11.57;;
54921;SDS011;40824;45.116;21.296;2023-06-22T03:12:39;13.48;;;12.10;;
54921;SDS011;40824;45.116;21.296;2023-06-22T03:15:06;13.73;;;11.32;;
54921;SDS011;40824;45.116;21.296;2023-06-22T03:17:33;12.07;;;10.88;;
54921;SDS011;40824;45.116;21.296;2023-06-22T03:19:59;12.18;;;10.57;;
54921;SDS011;40824;45.116;21.296;2023-06-22T03:22:25;13.48;;;11.35;;
54921;SDS011;40824;45.116;21.296;2023-06-22T03:24:54;15.98;;;10.85;;
54921;SDS011;40824;45.116;21.296;2023-06-22T03:27:20;14.77;;;11.77;;
54921;SDS011;40824;45.116;21.296;2023-06-22T03:29:46;16.10;;;12.18;;
54921;SDS011;40824;45.116;21.296;2023-06-22T03:32:12;13.90;;;11.95;;
54921;SDS011;40824;45.116;21.296;2023-06-22T03:34:38;16.13;;;11.70;;
54921;SDS011;40824;45.116;21.296;2023-06-22T03:37:04;17.45;;;12.95;;
54921;SDS011;40824;45.116;21.296;2023-06-22T03:39:31;15.30;;;11.88;;
54921;SDS011;40824;45.116;21.296;2023-06-22T03:41:57;15.98;;;12.60;;
54921;SDS011;40824;45.116;21.296;2023-06-22T03:44:24;16.10;;;13.38;;
54921;SDS011;40824;45.116;21.296;2023-06-22T03:46:50;15.13;;;12.50;;
54921;SDS011;40824;45.116;21.296;2023-06-22T03:49:16;16.40;;;12.48;;
54921;SDS011;40824;45.116;21.296;2023-06-22T03:51:42;17.50;;;13.05;;
54921;SDS011;40824;45.116;21.296;2023-06-22T03:54:08;15.95;;;13.27;;
54921;SDS011;40824;45.116;21.296;2023-06-22T03:56:34;13.07;;;11.73;;
54921;SDS011;40824;45.116;21.296;2023-06-22T03:59:01;16.77;;;13.35;;
54921;SDS011;40824;45.116;21.296;2023-06-22T04:01:27;16.02;;;12.68;;
54921;SDS011;40824;45.116;21.296;2023-06-22T04:03:53;15.43;;;13.13;;
54921;SDS011;40824;45.116;21.296;2023-06-22T04:06:19;14.80;;;12.35;;
54921;SDS011;40824;45.116;21.296;2023-06-22T04:08:45;14.85;;;13.13;;
54921;SDS011;40824;45.116;21.296;2023-06-22T04:11:19;14.10;;;12.23;;
54921;SDS011;40824;45.116;21.296;2023-06-22T04:13:48;20.17;;;12.23;;
54921;SDS011;40824;45.116;21.296;2023-06-22T04:16:16;13.52;;;12.00;;
54921;SDS011;40824;45.116;21.296;2023-06-22T04:18:42;17.02;;;11.68;;
54921;SDS011;40824;45.116;21.296;2023-06-22T04:21:11;16.70;;;12.35;;
54921;SDS011;40824;45.116;21.296;2023-06-22T04:23:37;14.32;;;11.80;;
54921;SDS011;40824;45.116;21.296;2023-06-22T04:26:03;15.40;;;11.50;;
54921;SDS011;40824;45.116;21.296;2023-06-22T04:28:30;13.45;;;11.40;;
54921;SDS011;40824;45.116;21.296;2023-06-22T04:31:05;13.07;;;11.68;;
54921;SDS011;40824;45.116;21.296;2023-06-22T04:33:32;12.75;;;11.30;;
54921;SDS011;40824;45.116;21.296;2023-06-22T04:36:01;12.30;;;11.18;;
54921;SDS011;40824;45.116;21.296;2023-06-22T04:38:28;12.73;;;11.40;;
54921;SDS011;40824;45.116;21.296;2023-06-22T04:41:01;12.50;;;11.30;;
54921;SDS011;40824;45.116;21.296;2023-06-22T04:43:28;13.40;;;10.80;;
54921;SDS011;40824;45.116;21.296;2023-06-22T04:45:55;13.07;;;11.32;;
54921;SDS011;40824;45.116;21.296;2023-06-22T04:48:21;12.38;;;10.98;;
54921;SDS011;40824;45.116;21.296;2023-06-22T04:50:48;14.90;;;10.88;;
54921;SDS011;40824;45.116;21.296;2023-06-22T04:53:14;14.40;;;10.75;;
54921;SDS011;40824;45.116;21.296;2023-06-22T04:55:40;13.32;;;10.95;;
54921;SDS011;40824;45.116;21.296;2023-06-22T04:58:07;13.00;;;11.18;;
54921;SDS011;40824;45.116;21.296;2023-06-22T05:00:40;16.70;;;10.73;;
54921;SDS011;40824;45.116;21.296;2023-06-22T05:03:07;14.30;;;11.02;;
54921;SDS011;40824;45.116;21.296;2023-06-22T05:05:36;12.15;;;10.68;;
54921;SDS011;40824;45.116;21.296;2023-06-22T05:08:02;13.88;;;10.07;;
54921;SDS011;40824;45.116;21.296;2023-06-22T05:10:37;11.98;;;10.70;;
54921;SDS011;40824;45.116;21.296;2023-06-22T05:13:06;13.02;;;10.80;;
54921;SDS011;40824;45.116;21.296;2023-06-22T05:15:32;11.43;;;10.07;;
54921;SDS011;40824;45.116;21.296;2023-06-22T05:18:07;11.32;;;10.13;;
54921;SDS011;40824;45.116;21.296;2023-06-22T05:20:36;14.63;;;9.95;;
54921;SDS011;40824;45.116;21.296;2023-06-22T05:23:07;11.07;;;9.98;;
54921;SDS011;40824;45.116;21.296;2023-06-22T05:25:42;12.65;;;10.07;;
54921;SDS011;40824;45.116;21.296;2023-06-22T05:28:19;11.00;;;9.90;;
54921;SDS011;40824;45.116;21.296;2023-06-22T05:30:54;12.18;;;9.50;;
54921;SDS011;40824;45.116;21.296;2023-06-22T05:33:31;11.23;;;10.13;;
54921;SDS011;40824;45.116;21.296;2023-06-22T05:38:55;10.60;;;9.55;;
54921;SDS011;40824;45.116;21.296;2023-06-22T05:41:24;11.50;;;9.00;;
54921;SDS011;40824;45.116;21.296;2023-06-22T05:43:50;10.65;;;9.43;;
54921;SDS011;40824;45.116;21.296;2023-06-22T05:46:16;10.15;;;8.73;;
54921;SDS011;40824;45.116;21.296;2023-06-22T05:48:42;10.40;;;9.05;;
54921;SDS011;40824;45.116;21.296;2023-06-22T05:51:08;11.88;;;8.85;;
54921;SDS011;40824;45.116;21.296;2023-06-22T05:53:34;11.57;;;9.27;;
54921;SDS011;40824;45.116;21.296;2023-06-22T05:56:19;10.40;;;9.30;;
54921;SDS011;40824;45.116;21.296;2023-06-22T05:58:45;10.57;;;8.52;;
54921;SDS011;40824;45.116;21.296;2023-06-22T06:01:12;11.18;;;8.55;;
54921;SDS011;40824;45.116;21.296;2023-06-22T06:03:40;10.82;;;9.05;;
54921;SDS011;40824;45.116;21.296;2023-06-22T06:06:09;11.73;;;9.02;;
54921;SDS011;40824;45.116;21.296;2023-06-22T06:08:39;8.75;;;7.95;;
54921;SDS011;40824;45.116;21.296;2023-06-22T06:11:05;11.70;;;8.65;;
54921;SDS011;40824;45.116;21.296;2023-06-22T06:13:31;9.52;;;7.85;;
54921;SDS011;40824;45.116;21.296;2023-06-22T06:15:57;12.13;;;9.05;;
54921;SDS011;40824;45.116;21.296;2023-06-22T06:18:24;14.13;;;8.70;;
54921;SDS011;40824;45.116;21.296;2023-06-22T06:20:53;9.45;;;8.45;;
54921;SDS011;40824;45.116;21.296;2023-06-22T06:23:19;9.55;;;8.15;;
54921;SDS011;40824;45.116;21.296;2023-06-22T06:25:45;10.88;;;9.02;;
54921;SDS011;40824;45.116;21.296;2023-06-22T06:28:11;13.38;;;9.35;;
54921;SDS011;40824;45.116;21.296;2023-06-22T06:30:37;13.45;;;9.10;;
54921;SDS011;40824;45.116;21.296;2023-06-22T06:33:04;9.70;;;8.70;;
54921;SDS011;40824;45.116;21.296;2023-06-22T06:35:33;10.93;;;9.55;;
54921;SDS011;40824;45.116;21.296;2023-06-22T06:38:00;11.82;;;8.75;;
54921;SDS011;40824;45.116;21.296;2023-06-22T06:40:31;11.40;;;8.98;;
54921;SDS011;40824;45.116;21.296;2023-06-22T06:42:57;9.27;;;8.38;;
54921;SDS011;40824;45.116;21.296;2023-06-22T06:45:23;10.45;;;8.77;;
54921;SDS011;40824;45.116;21.296;2023-06-22T06:47:50;10.93;;;9.10;;
54921;SDS011;40824;45.116;21.296;2023-06-22T06:50:18;9.88;;;8.90;;
54921;SDS011;40824;45.116;21.296;2023-06-22T06:52:44;11.55;;;9.27;;
54921;SDS011;40824;45.116;21.296;2023-06-22T06:55:10;10.43;;;8.40;;
54921;SDS011;40824;45.116;21.296;2023-06-22T06:57:39;12.52;;;8.88;;
54921;SDS011;40824;45.116;21.296;2023-06-22T07:00:10;9.70;;;8.70;;
54921;SDS011;40824;45.116;21.296;2023-06-22T07:02:39;10.73;;;9.23;;
54921;SDS011;40824;45.116;21.296;2023-06-22T07:05:06;8.98;;;8.07;;
54921;SDS011;40824;45.116;21.296;2023-06-22T07:07:32;11.90;;;8.18;;
54921;SDS011;40824;45.116;21.296;2023-06-22T07:09:59;9.80;;;7.88;;
54921;SDS011;40824;45.116;21.296;2023-06-22T07:12:25;10.40;;;8.40;;
54921;SDS011;40824;45.116;21.296;2023-06-22T07:14:52;10.02;;;8.55;;
54921;SDS011;40824;45.116;21.296;2023-06-22T07:17:18;9.55;;;8.35;;
54921;SDS011;40824;45.116;21.296;2023-06-22T07:19:44;9.23;;;8.23;;
54921;SDS011;40824;45.116;21.296;2023-06-22T07:22:10;11.82;;;9.05;;
54921;SDS011;40824;45.116;21.296;2023-06-22T07:24:36;10.02;;;8.43;;
54921;SDS011;40824;45.116;21.296;2023-06-22T07:27:02;9.60;;;8.60;;
54921;SDS011;40824;45.116;21.296;2023-06-22T07:29:31;12.32;;;8.85;;
54921;SDS011;40824;45.116;21.296;2023-06-22T07:32:01;11.45;;;8.68;;
54921;SDS011;40824;45.116;21.296;2023-06-22T07:34:29;10.65;;;8.98;;
54921;SDS011;40824;45.116;21.296;2023-06-22T07:36:56;9.73;;;8.73;;
54921;SDS011;40824;45.116;21.296;2023-06-22T07:39:22;10.00;;;8.60;;
54921;SDS011;40824;45.116;21.296;2023-06-22T07:41:50;10.70;;;8.48;;
54921;SDS011;40824;45.116;21.296;2023-06-22T07:44:16;10.25;;;8.88;;
54921;SDS011;40824;45.116;21.296;2023-06-22T07:46:43;10.48;;;8.27;;
54921;SDS011;40824;45.116;21.296;2023-06-22T07:49:09;10.23;;;8.48;;
54921;SDS011;40824;45.116;21.296;2023-06-22T07:51:35;10.07;;;9.07;;
54921;SDS011;40824;45.116;21.296;2023-06-22T07:54:04;10.75;;;9.65;;
54921;SDS011;40824;45.116;21.296;2023-06-22T07:56:30;11.40;;;8.85;;
54921;SDS011;40824;45.116;21.296;2023-06-22T07:58:57;10.10;;;9.10;;
54921;SDS011;40824;45.116;21.296;2023-06-22T08:01:24;10.45;;;9.32;;
54921;SDS011;40824;45.116;21.296;2023-06-22T08:03:50;12.25;;;10.07;;
54921;SDS011;40824;45.116;21.296;2023-06-22T08:06:16;15.15;;;9.63;;
54921;SDS011;40824;45.116;21.296;2023-06-22T08:08:42;12.23;;;9.38;;
54921;SDS011;40824;45.116;21.296;2023-06-22T08:11:09;12.85;;;9.73;;
54921;SDS011;40824;45.116;21.296;2023-06-22T08:13:35;12.07;;;9.50;;
54921;SDS011;40824;45.116;21.296;2023-06-22T08:16:01;11.73;;;9.15;;
54921;SDS011;40824;45.116;21.296;2023-06-22T08:18:27;10.38;;;9.35;;
54921;SDS011;40824;45.116;21.296;2023-06-22T08:20:53;13.98;;;10.65;;
54921;SDS011;40824;45.116;21.296;2023-06-22T08:23:20;12.70;;;9.80;;
54921;SDS011;40824;45.116;21.296;2023-06-22T08:25:46;11.23;;;10.15;;
54921;SDS011;40824;45.116;21.296;2023-06-22T08:28:13;13.13;;;10.48;;
54921;SDS011;40824;45.116;21.296;2023-06-22T08:30:39;11.93;;;10.30;;
54921;SDS011;40824;45.116;21.296;2023-06-22T08:33:05;13.02;;;10.50;;
54921;SDS011;40824;45.116;21.296;2023-06-22T08:35:31;14.10;;;10.05;;
54921;SDS011;40824;45.116;21.296;2023-06-22T08:37:57;11.20;;;10.02;;
54921;SDS011;40824;45.116;21.296;2023-06-22T08:40:24;11.15;;;9.98;;
54921;SDS011;40824;45.116;21.296;2023-06-22T08:42:51;11.82;;;10.30;;
54921;SDS011;40824;45.116;21.296;2023-06-22T08:45:17;14.23;;;11.15;;
54921;SDS011;40824;45.116;21.296;2023-06-22T08:47:43;16.35;;;11.43;;
54921;SDS011;40824;45.116;21.296;2023-06-22T08:50:09;16.55;;;12.50;;
54921;SDS011;40824;45.116;21.296;2023-06-22T08:52:36;20.00;;;13.27;;
54921;SDS011;40824;45.116;21.296;2023-06-22T08:55:03;16.70;;;12.73;;
54921;SDS011;40824;45.116;21.296;2023-06-22T08:57:29;18.58;;;12.90;;
54921;SDS011;40824;45.116;21.296;2023-06-22T08:59:58;17.88;;;11.60;;
54921;SDS011;40824;45.116;21.296;2023-06-22T09:02:25;12.52;;;11.10;;
54921;SDS011;40824;45.116;21.296;2023-06-22T09:04:51;16.25;;;11.05;;
54921;SDS011;40824;45.116;21.296;2023-06-22T09:07:21;15.02;;;10.95;;
54921;SDS011;40824;45.116;21.296;2023-06-22T09:09:49;13.48;;;11.23;;
54921;SDS011;40824;45.116;21.296;2023-06-22T09:12:15;11.90;;;10.70;;
54921;SDS011;40824;45.116;21.296;2023-06-22T09:14:41;10.45;;;9.00;;
54921;SDS011;40824;45.116;21.296;2023-06-22T09:17:07;11.30;;;9.63;;
54921;SDS011;40824;45.116;21.296;2023-06-22T09:19:33;9.88;;;8.52;;
54921;SDS011;40824;45.116;21.296;2023-06-22T09:21:59;12.02;;;10.77;;
54921;SDS011;40824;45.116;21.296;2023-06-22T09:24:26;22.70;;;12.85;;
54921;SDS011;40824;45.116;21.296;2023-06-22T09:26:52;16.38;;;11.38;;
54921;SDS011;40824;45.116;21.296;2023-06-22T09:29:18;15.18;;;11.10;;
54921;SDS011;40824;45.116;21.296;2023-06-22T09:31:44;16.50;;;10.82;;
54921;SDS011;40824;45.116;21.296;2023-06-22T09:34:10;21.45;;;12.70;;
54921;SDS011;40824;45.116;21.296;2023-06-22T09:36:36;23.33;;;11.23;;
54921;SDS011;40824;45.116;21.296;2023-06-22T09:39:04;19.42;;;11.77;;
54921;SDS011;40824;45.116;21.296;2023-06-22T09:41:31;18.00;;;12.10;;
54921;SDS011;40824;45.116;21.296;2023-06-22T09:43:57;15.13;;;11.45;;
54921;SDS011;40824;45.116;21.296;2023-06-22T09:46:24;15.43;;;11.63;;
54921;SDS011;40824;45.116;21.296;2023-06-22T09:48:50;13.15;;;11.73;;
54921;SDS011;40824;45.116;21.296;2023-06-22T09:51:16;15.68;;;12.18;;
54921;SDS011;40824;45.116;21.296;2023-06-22T09:53:44;12.35;;;11.05;;
54921;SDS011;40824;45.116;21.296;2023-06-22T09:56:10;12.00;;;9.80;;
54921;SDS011;40824;45.116;21.296;2023-06-22T09:58:40;18.55;;;11.45;;
54921;SDS011;40824;45.116;21.296;2023-06-22T10:01:06;12.13;;;10.18;;
54921;SDS011;40824;45.116;21.296;2023-06-22T10:03:32;15.25;;;10.63;;
54921;SDS011;40824;45.116;21.296;2023-06-22T10:05:58;10.68;;;9.57;;
54921;SDS011;40824;45.116;21.296;2023-06-22T10:08:24;10.90;;;9.80;;
54921;SDS011;40824;45.116;21.296;2023-06-22T10:10:50;14.05;;;10.27;;
54921;SDS011;40824;45.116;21.296;2023-06-22T10:13:16;12.02;;;9.38;;
54921;SDS011;40824;45.116;21.296;2023-06-22T10:15:43;11.57;;;10.32;;
54921;SDS011;40824;45.116;21.296;2023-06-22T10:18:14;11.07;;;9.88;;
54921;SDS011;40824;45.116;21.296;2023-06-22T10:20:41;13.52;;;9.80;;
54921;SDS011;40824;45.116;21.296;2023-06-22T10:23:07;11.95;;;10.57;;
54921;SDS011;40824;45.116;21.296;2023-06-22T10:25:33;12.32;;;11.05;;
54921;SDS011;40824;45.116;21.296;2023-06-22T10:27:59;12.30;;;11.07;;
54921;SDS011;40824;45.116;21.296;2023-06-22T10:30:25;13.57;;;10.40;;
54921;SDS011;40824;45.116;21.296;2023-06-22T10:32:51;11.20;;;10.10;;
54921;SDS011;40824;45.116;21.296;2023-06-22T10:35:17;10.07;;;9.00;;
54921;SDS011;40824;45.116;21.296;2023-06-22T10:37:43;12.70;;;8.95;;
54921;SDS011;40824;45.116;21.296;2023-06-22T10:40:11;10.70;;;9.60;;
54921;SDS011;40824;45.116;21.296;2023-06-22T10:42:37;12.35;;;9.25;;
54921;SDS011;40824;45.116;21.296;2023-06-22T10:45:03;11.32;;;8.95;;
54921;SDS011;40824;45.116;21.296;2023-06-22T10:47:29;12.88;;;9.35;;
54921;SDS011;40824;45.116;21.296;2023-06-22T10:49:55;9.32;;;8.43;;
54921;SDS011;40824;45.116;21.296;2023-06-22T10:52:21;10.70;;;9.60;;
54921;SDS011;40824;45.116;21.296;2023-06-22T10:54:47;9.85;;;8.57;;
54921;SDS011;40824;45.116;21.296;2023-06-22T10:57:17;10.88;;;9.30;;
54921;SDS011;40824;45.116;21.296;2023-06-22T10:59:43;9.77;;;8.32;;
54921;SDS011;40824;45.116;21.296;2023-06-22T11:02:09;11.95;;;9.70;;
54921;SDS011;40824;45.116;21.296;2023-06-22T11:04:35;11.70;;;8.25;;
54921;SDS011;40824;45.116;21.296;2023-06-22T11:07:01;10.88;;;8.38;;
54921;SDS011;40824;45.116;21.296;2023-06-22T11:09:30;12.07;;;8.32;;
54921;SDS011;40824;45.116;21.296;2023-06-22T11:11:56;8.98;;;7.82;;
54921;SDS011;40824;45.116;21.296;2023-06-22T11:14:24;10.90;;;8.35;;
54921;SDS011;40824;45.116;21.296;2023-06-22T11:16:50;11.45;;;8.57;;
54921;SDS011;40824;45.116;21.296;2023-06-22T11:19:16;12.90;;;8.68;;
54921;SDS011;40824;45.116;21.296;2023-06-22T11:21:43;9.30;;;7.63;;
54921;SDS011;40824;45.116;21.296;2023-06-22T11:24:09;10.00;;;7.47;;
54921;SDS011;40824;45.116;21.296;2023-06-22T11:26:35;8.65;;;7.75;;
54921;SDS011;40824;45.116;21.296;2023-06-22T11:29:02;11.02;;;7.32;;
54921;SDS011;40824;45.116;21.296;2023-06-22T11:31:32;9.57;;;7.05;;
54921;SDS011;40824;45.116;21.296;2023-06-22T11:33:58;9.32;;;6.75;;
54921;SDS011;40824;45.116;21.296;2023-06-22T11:36:24;11.95;;;7.22;;
54921;SDS011;40824;45.116;21.296;2023-06-22T11:38:50;7.38;;;6.43;;
54921;SDS011;40824;45.116;21.296;2023-06-22T11:41:17;10.95;;;7.18;;
54921;SDS011;40824;45.116;21.296;2023-06-22T11:43:43;8.80;;;7.30;;
54921;SDS011;40824;45.116;21.296;2023-06-22T11:46:09;9.75;;;7.35;;
54921;SDS011;40824;45.116;21.296;2023-06-22T11:48:35;10.48;;;8.27;;
54921;SDS011;40824;45.116;21.296;2023-06-22T11:51:01;7.90;;;6.95;;
54921;SDS011;40824;45.116;21.296;2023-06-22T11:53:28;11.70;;;7.60;;
54921;SDS011;40824;45.116;21.296;2023-06-22T11:55:54;9.98;;;7.05;;
54921;SDS011;40824;45.116;21.296;2023-06-22T11:58:21;8.65;;;7.20;;
54921;SDS011;40824;45.116;21.296;2023-06-22T12:00:47;8.05;;;6.47;;
54921;SDS011;40824;45.116;21.296;2023-06-22T12:03:13;8.45;;;6.70;;
54921;SDS011;40824;45.116;21.296;2023-06-22T12:05:40;12.20;;;7.28;;
54921;SDS011;40824;45.116;21.296;2023-06-22T12:08:06;10.20;;;7.05;;
54921;SDS011;40824;45.116;21.296;2023-06-22T12:10:32;11.65;;;6.53;;
54921;SDS011;40824;45.116;21.296;2023-06-22T12:12:59;11.43;;;6.20;;
54921;SDS011;40824;45.116;21.296;2023-06-22T12:15:26;9.27;;;6.25;;
54921;SDS011;40824;45.116;21.296;2023-06-22T12:17:52;10.73;;;7.32;;
54921;SDS011;40824;45.116;21.296;2023-06-22T12:20:18;10.55;;;6.80;;
54921;SDS011;40824;45.116;21.296;2023-06-22T12:22:44;8.73;;;6.13;;
54921;SDS011;40824;45.116;21.296;2023-06-22T12:25:12;7.35;;;5.80;;
54921;SDS011;40824;45.116;21.296;2023-06-22T12:27:38;10.15;;;7.00;;
54921;SDS011;40824;45.116;21.296;2023-06-22T12:30:04;9.43;;;5.55;;
54921;SDS011;40824;45.116;21.296;2023-06-22T12:32:31;7.40;;;6.05;;
54921;SDS011;40824;45.116;21.296;2023-06-22T12:34:57;9.30;;;5.90;;
54921;SDS011;40824;45.116;21.296;2023-06-22T12:37:24;6.82;;;5.70;;
54921;SDS011;40824;45.116;21.296;2023-06-22T12:39:50;7.57;;;5.53;;
54921;SDS011;40824;45.116;21.296;2023-06-22T12:42:16;7.75;;;6.25;;
54921;SDS011;40824;45.116;21.296;2023-06-22T12:44:42;9.88;;;5.95;;
54921;SDS011;40824;45.116;21.296;2023-06-22T12:47:09;11.00;;;6.03;;
54921;SDS011;40824;45.116;21.296;2023-06-22T12:49:36;8.85;;;6.07;;
54921;SDS011;40824;45.116;21.296;2023-06-22T12:52:02;10.27;;;6.10;;
54921;SDS011;40824;45.116;21.296;2023-06-22T12:54:28;9.27;;;5.95;;
54921;SDS011;40824;45.116;21.296;2023-06-22T12:56:54;8.60;;;6.38;;
54921;SDS011;40824;45.116;21.296;2023-06-22T12:59:21;7.68;;;5.88;;
54921;SDS011;40824;45.116;21.296;2023-06-22T13:01:47;8.82;;;6.10;;
54921;SDS011;40824;45.116;21.296;2023-06-22T13:04:15;8.50;;;5.97;;
54921;SDS011;40824;45.116;21.296;2023-06-22T13:06:43;7.88;;;6.10;;
54921;SDS011;40824;45.116;21.296;2023-06-22T13:09:12;7.70;;;6.00;;
54921;SDS011;40824;45.116;21.296;2023-06-22T13:11:38;7.95;;;6.07;;
54921;SDS011;40824;45.116;21.296;2023-06-22T13:14:04;10.23;;;6.53;;
54921;SDS011;40824;45.116;21.296;2023-06-22T13:16:30;10.07;;;6.45;;
54921;SDS011;40824;45.116;21.296;2023-06-22T13:18:56;8.35;;;6.72;;
54921;SDS011;40824;45.116;21.296;2023-06-22T13:21:23;7.00;;;6.30;;
54921;SDS011;40824;45.116;21.296;2023-06-22T13:23:49;7.72;;;6.43;;
54921;SDS011;40824;45.116;21.296;2023-06-22T13:26:15;9.40;;;6.75;;
54921;SDS011;40824;45.116;21.296;2023-06-22T13:28:41;10.00;;;6.90;;
54921;SDS011;40824;45.116;21.296;2023-06-22T13:31:07;8.50;;;6.22;;
54921;SDS011;40824;45.116;21.296;2023-06-22T13:33:35;7.75;;;5.70;;
54921;SDS011;40824;45.116;21.296;2023-06-22T13:36:06;8.20;;;6.93;;
54921;SDS011;40824;45.116;21.296;2023-06-22T13:38:35;8.73;;;6.22;;
54921;SDS011;40824;45.116;21.296;2023-06-22T13:41:03;8.15;;;6.63;;
54921;SDS011;40824;45.116;21.296;2023-06-22T13:43:29;8.55;;;6.45;;
54921;SDS011;40824;45.116;21.296;2023-06-22T13:45:55;8.50;;;6.47;;
54921;SDS011;40824;45.116;21.296;2023-06-22T13:48:22;8.50;;;6.47;;
54921;SDS011;40824;45.116;21.296;2023-06-22T13:50:48;8.40;;;5.70;;
54921;SDS011;40824;45.116;21.296;2023-06-22T13:53:14;7.93;;;6.57;;
54921;SDS011;40824;45.116;21.296;2023-06-22T13:55:41;10.02;;;5.97;;
54921;SDS011;40824;45.116;21.296;2023-06-22T13:58:07;9.70;;;5.63;;
54921;SDS011;40824;45.116;21.296;2023-06-22T14:00:33;7.43;;;5.93;;
54921;SDS011;40824;45.116;21.296;2023-06-22T14:02:59;10.52;;;6.47;;
54921;SDS011;40824;45.116;21.296;2023-06-22T14:05:25;9.45;;;5.40;;
54921;SDS011;40824;45.116;21.296;2023-06-22T14:07:51;11.05;;;6.30;;
54921;SDS011;40824;45.116;21.296;2023-06-22T14:10:17;7.80;;;5.75;;
54921;SDS011;40824;45.116;21.296;2023-06-22T14:12:43;7.13;;;5.80;;
54921;SDS011;40824;45.116;21.296;2023-06-22T14:15:10;9.32;;;6.63;;
54921;SDS011;40824;45.116;21.296;2023-06-22T14:17:36;8.43;;;6.13;;
54921;SDS011;40824;45.116;21.296;2023-06-22T14:20:02;7.20;;;5.70;;
54921;SDS011;40824;45.116;21.296;2023-06-22T14:22:28;9.00;;;5.63;;
54921;SDS011;40824;45.116;21.296;2023-06-22T14:24:54;10.02;;;6.05;;
54921;SDS011;40824;45.116;21.296;2023-06-22T14:27:24;7.32;;;5.85;;